Kitanomaru — JD2835 — position and weather

sailwx.info

Track history (hours):
 
Tides and Currents Weather Stations Pressure Air Temp Water Temp Dewpoint Dewpoint Depression Visibility Wind Speed Wind Dir Waves Ship Positions

Kitanomaru

Last reported at 2014-Oct-23 00:33 UTC. Time now 2014-Oct-24 14:41 UTC.
Position N 35°31' E 139°60'.

Length 39 m; draft 4 m.

Type: Tug. MMSI: 431000773.

Date/timePositionNaut miles runAvg speedWind from/ knotsBaromVisibWave heightAir tempDewpointWater temp
2014-Oct-23 00:33N 35°31' E 139°60'3 0.1
2014-Oct-21 23:11N 35°29' E 139°59'1 1.6
2014-Oct-21 22:24N 35°28' E 139°58'4 0.3
2014-Oct-21 05:16N 35°32' E 139°57'1 0.1
2014-Oct-20 04:31N 35°31' E 139°55'1 0.7
2014-Oct-20 03:33N 35°31' E 139°56'2 1.0
2014-Oct-20 01:31N 35°29' E 139°57'  
2014-Oct-17 00:33N 35°30' E 139°59'3 1.2
2014-Oct-16 22:20N 35°33' E 139°58'3 0.1
2014-Oct-15 01:28N 35°30' E 139°58'  
Track history (hours):
 
Tides and Currents Weather Stations Pressure Air Temp Water Temp Dewpoint Dewpoint Depression Visibility Wind Speed Wind Dir Waves Ship Positions

Kitanomaru

Last reported at 2014-Oct-23 00:33 UTC. Time now 2014-Oct-24 14:41 UTC.
Position N 35°31' E 139°60'.

Length 39 m; draft 4 m.

Type: Tug. MMSI: 431000773.

Date/timePositionNaut miles runAvg speedWind from/ knotsBaromVisibWave heightAir tempDewpointWater temp
2014-Oct-23 00:33N 35°31' E 139°60'3 0.1
2014-Oct-21 23:11N 35°29' E 139°59'1 1.6
2014-Oct-21 22:24N 35°28' E 139°58'4 0.3
2014-Oct-21 05:16N 35°32' E 139°57'1 0.1
2014-Oct-20 04:31N 35°31' E 139°55'1 0.7
2014-Oct-20 03:33N 35°31' E 139°56'2 1.0
2014-Oct-20 01:31N 35°29' E 139°57'  
2014-Oct-17 00:33N 35°30' E 139°59'3 1.2
2014-Oct-16 22:20N 35°33' E 139°58'3 0.1
2014-Oct-15 01:28N 35°30' E 139°58'  

Dump ship's entire track history